Time;durP1;ratioP1;P1;durP2;ratioP2;P2;SDS_P1;SDS_P2;PMS_P1;PMS_P2;Temp;Humidity;BMP_temperature;BMP_pressure;BME280_temperature;BME280_humidity;BME280_pressure;Samples;Min_cycle;Max_cycle;Signal;HPM_P1;HPM_P2
2022/06/20 00:00:46;;;;;;;6.20;4.20;;;;;;;18.93;80.22;99485.50;6217161;23;20091;-83
2022/06/20 00:03:23;;;;;;;8.07;4.40;;;;;;;18.91;80.39;99499.31;6215977;23;20035;-84
2022/06/20 00:05:48;;;;;;;5.97;4.30;;;;;;;18.93;80.06;99496.75;6217252;23;20012;-83
2022/06/20 00:08:14;;;;;;;6.22;4.28;;;;;;;18.96;79.90;99495.00;6243309;23;20058;-83
2022/06/20 00:10:42;;;;;;;6.45;4.43;;;;;;;18.95;79.50;99491.41;6243756;23;20016;-83
2022/06/20 00:13:13;;;;;;;5.53;4.55;;;;;;;18.95;79.63;99494.22;6243587;23;20008;-83
2022/06/20 00:15:39;;;;;;;5.43;4.72;;;;;;;18.94;79.54;99486.28;6216977;23;20042;-83
2022/06/20 00:18:06;;;;;;;5.68;4.43;;;;;;;18.92;79.77;99494.47;6216847;23;20556;-83
2022/06/20 00:20:31;;;;;;;4.72;4.28;;;;;;;18.92;79.55;99486.03;6192046;23;20458;-83
2022/06/20 00:22:58;;;;;;;7.60;4.93;;;;;;;18.92;79.91;99478.38;6243547;23;20008;-83
2022/06/20 00:25:24;;;;;;;6.25;4.63;;;;;;;18.90;80.03;99485.75;6243369;23;20000;-83
2022/06/20 00:27:51;;;;;;;7.47;4.30;;;;;;;18.85;80.68;99475.28;6217091;23;20012;-83
2022/06/20 00:30:18;;;;;;;6.32;4.40;;;;;;;18.85;80.19;99466.84;6216480;23;20110;-83
2022/06/20 00:32:43;;;;;;;6.05;4.38;;;;;;;18.79;80.40;99464.03;6243357;23;20023;-83
2022/06/20 00:35:09;;;;;;;8.30;4.60;;;;;;;18.83;80.10;99458.16;6243700;23;20351;-83
2022/06/20 00:37:35;;;;;;;5.65;4.72;;;;;;;18.85;80.01;99461.22;6216473;23;20004;-83
2022/06/20 00:40:04;;;;;;;5.43;4.65;;;;;;;18.85;80.04;99449.97;6191553;23;20455;-83
2022/06/20 00:42:29;;;;;;;6.30;4.70;;;;;;;18.81;80.99;99441.81;6216364;23;20004;-83
2022/06/20 00:44:58;;;;;;;6.00;4.55;;;;;;;18.80;81.04;99450.75;6216903;23;20016;-83
2022/06/20 00:47:26;;;;;;;6.50;4.45;;;;;;;18.85;81.72;99445.13;6242841;23;20011;-83
2022/06/20 00:50:04;;;;;;;6.30;4.70;;;;;;;18.87;81.11;99448.22;6243557;23;20012;-83
2022/06/20 00:53:00;;;;;;;5.75;4.97;;;;;;;18.84;81.87;99442.84;6243318;23;20012;-83
2022/06/20 00:55:41;;;;;;;6.43;4.60;;;;;;;18.82;81.80;99431.34;6216299;23;20023;-83
2022/06/20 00:58:15;;;;;;;5.43;4.75;;;;;;;18.79;83.03;99432.34;6243186;23;20454;-83
2022/06/20 01:00:41;;;;;;;5.82;4.80;;;;;;;18.75;83.17;99431.84;6216252;23;20094;-83
2022/06/20 01:03:27;;;;;;;5.22;4.50;;;;;;;18.73;83.24;99425.94;6215807;23;20062;-83
2022/06/20 01:05:57;;;;;;;7.00;5.10;;;;;;;18.69;83.74;99431.03;6242658;23;20090;-84
2022/06/20 01:08:53;;;;;;;6.93;5.10;;;;;;;18.64;84.93;99424.16;6215652;23;20012;-83
2022/06/20 01:11:21;;;;;;;5.90;5.28;;;;;;;18.62;84.42;99421.06;6223136;23;20317;-83
2022/06/20 01:13:47;;;;;;;5.72;5.10;;;;;;;18.56;85.09;99428.75;6216873;23;20019;-83
2022/06/20 01:16:13;;;;;;;7.50;5.20;;;;;;;18.55;85.76;99416.72;6243080;23;20023;-83
2022/06/20 01:18:40;;;;;;;5.82;4.90;;;;;;;18.48;85.70;99416.44;6243245;23;20003;-83
2022/06/20 01:21:10;;;;;;;5.28;4.78;;;;;;;18.42;84.75;99407.97;6216640;23;20012;-83
2022/06/20 01:23:51;;;;;;;8.48;5.15;;;;;;;18.45;84.67;99409.75;6216019;23;20050;-83
2022/06/20 01:26:31;;;;;;;6.90;5.00;;;;;;;18.45;84.49;99406.19;6216231;23;20016;-83
2022/06/20 01:28:59;;;;;;;5.82;5.10;;;;;;;18.44;84.60;99402.59;6216454;23;20016;-83
2022/06/20 01:31:26;;;;;;;5.65;4.80;;;;;;;18.43;84.63;99398.28;6216181;23;20043;-83
2022/06/20 01:33:52;;;;;;;6.88;4.97;;;;;;;18.33;85.12;99382.94;6191019;23;20057;-83
2022/06/20 01:39:04;;;;;;;6.00;4.80;;;;;;;18.33;84.71;99379.34;6220677;23;20083;-83
2022/06/20 01:44:17;;;;;;;7.43;4.65;;;;;;;18.33;84.85;99371.69;6215949;23;20099;-83
2022/06/20 01:46:44;;;;;;;5.05;4.55;;;;;;;18.35;84.65;99380.41;6243114;23;20015;-83
2022/06/20 01:49:16;;;;;;;7.85;5.10;;;;;;;18.36;84.43;99373.47;6216210;23;20034;-83
2022/06/20 01:52:22;;;;;;;7.18;4.80;;;;;;;18.34;84.83;99378.84;6243047;23;20397;-83
2022/06/20 01:54:55;;;;;;;5.50;5.00;;;;;;;18.28;85.01;99366.81;6241968;23;20016;-83
2022/06/20 01:57:21;;;;;;;5.63;4.53;;;;;;;18.24;85.22;99380.34;6190652;23;20019;-83
2022/06/20 02:00:25;;;;;;;6.45;5.30;;;;;;;18.15;86.02;99366.53;6191314;23;20377;-83
2022/06/20 02:02:56;;;;;;;6.50;5.28;;;;;;;18.15;85.77;99377.78;6149443;23;20029;-83
2022/06/20 02:05:26;;;;;;;6.20;5.03;;;;;;;18.11;85.88;99357.59;6205189;23;20023;-83
2022/06/20 02:07:51;;;;;;;5.78;5.13;;;;;;;18.09;85.54;99352.47;6242915;23;20088;-83
2022/06/20 02:10:28;;;;;;;6.47;5.05;;;;;;;18.12;85.20;99347.88;6216072;23;20095;-83
2022/06/20 02:12:57;;;;;;;6.05;4.97;;;;;;;18.10;84.76;99336.41;6217795;23;20023;-83
2022/06/20 02:15:22;;;;;;;6.15;5.32;;;;;;;18.17;84.42;99347.16;6218003;23;20012;-83
2022/06/20 02:17:50;;;;;;;5.50;5.00;;;;;;;18.18;83.66;99349.47;6192821;23;20434;-83
2022/06/20 02:20:25;;;;;;;5.78;4.75;;;;;;;18.26;83.48;99357.38;6218054;23;20065;-82
2022/06/20 02:22:52;;;;;;;6.88;4.80;;;;;;;18.33;82.99;99354.84;6218254;23;20095;-82
2022/06/20 02:25:24;;;;;;;6.93;5.30;;;;;;;18.31;82.75;99357.41;6217454;23;20008;-83
2022/06/20 02:28:08;;;;;;;7.00;4.97;;;;;;;18.31;83.29;99357.41;6217877;23;20389;-83
2022/06/20 02:30:34;;;;;;;6.82;4.80;;;;;;;18.28;83.31;99358.41;6217916;23;20023;-83
2022/06/20 02:33:09;;;;;;;6.20;5.07;;;;;;;18.25;83.62;99359.41;6244421;23;20008;-83
2022/06/20 02:35:35;;;;;;;5.47;4.90;;;;;;;18.21;84.26;99353.28;6217431;23;20069;-83
2022/06/20 02:38:00;;;;;;;7.25;4.97;;;;;;;18.18;84.79;99348.69;6244421;23;20004;-83
2022/06/20 02:40:26;;;;;;;15.25;5.25;;;;;;;18.11;85.02;99343.56;6217891;23;20075;-83
2022/06/20 02:42:58;;;;;;;6.88;5.40;;;;;;;18.15;84.94;99356.09;6244804;23;20012;-83
2022/06/20 02:45:24;;;;;;;6.63;5.30;;;;;;;18.15;84.58;99358.13;6217442;23;20014;-84
2022/06/20 02:47:52;;;;;;;7.43;5.35;;;;;;;18.15;84.59;99358.91;6244533;23;20000;-83
2022/06/20 02:50:21;;;;;;;5.53;5.03;;;;;;;18.17;84.26;99358.38;6244626;23;20073;-83
2022/06/20 02:52:54;;;;;;;6.00;5.20;;;;;;;18.14;84.63;99350.97;6217829;23;20020;-83
2022/06/20 02:55:20;;;;;;;5.82;5.18;;;;;;;18.12;84.86;99351.47;6192646;23;20012;-83
2022/06/20 02:57:52;;;;;;;6.43;5.05;;;;;;;18.08;85.26;99350.94;6217578;23;20093;-83
2022/06/20 03:00:25;;;;;;;7.10;5.50;;;;;;;18.09;85.02;99363.72;6244569;23;20039;-83
2022/06/20 03:02:57;;;;;;;7.07;5.55;;;;;;;18.04;85.22;99360.88;6217659;23;20030;-83
2022/06/20 03:05:23;;;;;;;7.30;5.45;;;;;;;18.00;85.41;99366.72;6217243;23;20019;-83
2022/06/20 03:07:49;;;;;;;5.68;5.18;;;;;;;17.98;85.72;99357.28;6217642;23;20012;-83
2022/06/20 03:10:45;;;;;;;6.13;5.53;;;;;;;17.93;86.19;99367.22;6244466;23;20088;-83
2022/06/20 03:13:12;;;;;;;5.60;5.10;;;;;;;17.92;86.13;99359.28;6192895;23;20465;-83
2022/06/20 03:15:37;;;;;;;6.22;5.47;;;;;;;17.91;86.09;99371.81;6217028;23;20035;-82
2022/06/20 03:18:04;;;;;;;5.90;5.40;;;;;;;17.95;85.90;99375.91;6217269;23;20023;-83
2022/06/20 03:20:30;;;;;;;6.60;5.68;;;;;;;17.97;86.02;99372.59;6217487;23;20351;-83
2022/06/20 03:23:02;;;;;;;5.72;5.05;;;;;;;17.93;86.03;99360.84;6243483;23;20020;-83
2022/06/20 03:25:28;;;;;;;6.50;5.50;;;;;;;17.98;85.73;99369.28;6217367;23;20097;-83
2022/06/20 03:27:53;;;;;;;7.00;6.15;;;;;;;18.00;85.85;99377.19;6217543;23;20000;-84
2022/06/20 03:30:34;;;;;;;6.95;5.63;;;;;;;18.02;85.82;99363.44;6217444;23;20039;-83
2022/06/20 03:33:02;;;;;;;7.63;5.97;;;;;;;18.02;85.96;99371.84;6244118;23;20381;-83
2022/06/20 03:35:30;;;;;;;6.25;5.65;;;;;;;18.04;85.83;99366.47;6217142;23;20005;-83
2022/06/20 03:38:01;;;;;;;8.85;6.25;;;;;;;18.03;86.09;99368.56;6243922;23;20039;-83
2022/06/20 03:40:27;;;;;;;6.25;5.65;;;;;;;18.06;86.24;99363.97;6241716;23;20334;-84
2022/06/20 03:42:54;;;;;;;7.47;6.03;;;;;;;18.06;86.09;99358.34;6214749;23;20008;-84
2022/06/20 03:45:20;;;;;;;7.40;6.18;;;;;;;18.04;86.24;99332.81;6242910;23;20039;-83
2022/06/20 03:47:53;;;;;;;6.97;6.28;;;;;;;18.14;86.02;99350.97;6242399;23;20450;-83
2022/06/20 03:50:28;;;;;;;7.43;6.20;;;;;;;18.07;86.29;99351.47;6217380;23;20079;-83
2022/06/20 03:52:59;;;;;;;6.55;5.80;;;;;;;18.07;86.36;99355.03;6214954;23;20019;-83
2022/06/20 03:56:06;;;;;;;7.00;6.30;;;;;;;18.08;86.68;99352.97;6217217;23;20019;-83
2022/06/20 03:58:42;;;;;;;7.07;6.35;;;;;;;18.09;86.76;99354.53;6242871;23;20016;-83
2022/06/20 04:01:23;;;;;;;7.95;6.70;;;;;;;18.10;86.57;99348.41;6217182;22;20558;-83
2022/06/20 04:04:07;;;;;;;7.07;6.40;;;;;;;18.19;86.52;99361.47;6216557;23;20090;-83
2022/06/20 04:06:40;;;;;;;;;;;;;;;18.23;86.35;99358.41;6217570;23;20034;-83
2022/06/20 04:12:06;;;;;;;7.70;7.00;;;;;;;18.25;86.21;99345.38;6220048;23;20012;-83
2022/06/20 04:14:38;;;;;;;6.70;6.10;;;;;;;18.22;85.65;99342.81;6216784;23;20012;-84
2022/06/20 04:20:07;;;;;;;7.05;6.38;;;;;;;18.34;85.79;99345.16;6221295;23;20515;-84
2022/06/20 04:22:35;;;;;;;7.38;6.53;;;;;;;18.32;85.61;99344.16;6216170;23;20023;-84
2022/06/20 04:25:19;;;;;;;7.90;7.20;;;;;;;18.33;85.23;99349.25;6216891;23;20020;-83
2022/06/20 04:27:58;;;;;;;7.82;6.57;;;;;;;18.37;85.66;99349.00;6243622;23;20464;-83
2022/06/20 04:30:37;;;;;;;7.60;6.80;;;;;;;18.41;84.73;99357.94;6216978;23;20016;-83
2022/06/20 04:33:13;;;;;;;8.30;6.78;;;;;;;18.45;85.11;99344.41;6243130;23;20012;-84
2022/06/20 04:35:45;;;;;;;8.95;7.00;;;;;;;18.52;85.16;99343.97;6216902;23;20015;-83
2022/06/20 04:38:25;;;;;;;8.05;6.90;;;;;;;18.54;84.99;99344.22;6216443;23;20008;-84
2022/06/20 04:41:02;;;;;;;7.47;6.70;;;;;;;18.48;84.60;99330.13;6242839;23;20012;-83
2022/06/20 04:43:36;;;;;;;8.15;6.85;;;;;;;18.52;85.22;99327.84;6243185;23;20062;-84
2022/06/20 04:46:18;;;;;;;8.32;6.82;;;;;;;18.57;85.26;99340.38;6215990;23;20008;-84
2022/06/20 04:48:46;;;;;;;7.47;6.55;;;;;;;18.61;85.03;99335.28;6190855;23;20008;-84
2022/06/20 04:51:15;;;;;;;7.80;6.85;;;;;;;18.65;85.28;99335.78;6242895;23;20004;-84
2022/06/20 04:53:42;;;;;;;8.40;7.20;;;;;;;18.55;85.24;99324.03;6243021;23;20066;-84
2022/06/20 04:56:11;;;;;;;8.23;7.15;;;;;;;18.63;85.34;99330.69;6242933;23;20019;-84
2022/06/20 04:58:44;;;;;;;11.65;7.25;;;;;;;18.64;85.79;99332.22;6241977;23;20023;-84
2022/06/20 05:01:10;;;;;;;7.97;7.22;;;;;;;18.72;85.80;99331.72;6242125;22;20437;-84
2022/06/20 05:03:55;;;;;;;8.10;7.30;;;;;;;18.68;85.84;99334.03;6242159;23;20026;-83
2022/06/20 05:06:24;;;;;;;8.25;7.35;;;;;;;18.76;85.36;99335.03;6242011;23;20016;-85
2022/06/20 05:08:53;;;;;;;8.05;7.05;;;;;;;18.81;85.92;99342.69;6241767;23;20016;-85
2022/06/20 05:11:28;;;;;;;9.77;7.72;;;;;;;18.90;85.61;99340.41;6242492;23;20034;-85
2022/06/20 05:14:17;;;;;;;8.27;7.47;;;;;;;18.98;85.35;99351.91;6215243;23;20446;-85
2022/06/20 05:16:48;;;;;;;7.93;7.13;;;;;;;18.99;85.53;99339.38;6230454;23;20020;-85
2022/06/20 05:19:21;;;;;;;7.93;7.10;;;;;;;19.03;85.12;99351.91;6241018;23;20023;-85
2022/06/20 05:21:50;;;;;;;7.97;7.20;;;;;;;19.13;86.06;99354.47;6215470;23;20021;-82
2022/06/20 05:24:24;;;;;;;8.90;7.13;;;;;;;19.22;84.77;99354.94;6215106;23;20462;-82
2022/06/20 05:26:51;;;;;;;8.93;7.70;;;;;;;19.22;84.62;99348.56;6216204;23;20410;-82
2022/06/20 05:29:28;;;;;;;8.50;7.70;;;;;;;19.33;84.80;99357.75;6215233;23;20008;-83
2022/06/20 05:31:55;;;;;;;8.35;7.55;;;;;;;19.44;84.32;99373.88;6216006;23;20012;-82
2022/06/20 05:35:07;;;;;;;7.28;6.68;;;;;;;19.61;84.06;99371.03;6214835;23;20022;-82
2022/06/20 05:37:44;;;;;;;8.30;7.50;;;;;;;19.79;83.16;99373.28;6161320;23;20031;-83
2022/06/20 05:40:24;;;;;;;9.43;7.47;;;;;;;20.01;81.15;99376.03;6216751;23;20039;-82
2022/06/20 05:42:50;;;;;;;8.30;7.50;;;;;;;20.04;81.47;99372.16;6215744;23;20039;-82
2022/06/20 05:45:18;;;;;;;8.05;7.25;;;;;;;20.18;80.76;99371.06;6241756;23;20419;-83
2022/06/20 05:47:49;;;;;;;8.90;7.05;;;;;;;20.34;80.31;99366.69;6242156;23;20442;-81
2022/06/20 05:50:15;;;;;;;7.40;6.70;;;;;;;20.65;77.63;99371.09;6214788;23;20485;-80
2022/06/20 05:52:41;;;;;;;8.02;6.93;;;;;;;20.87;76.53;99360.44;6239980;23;20013;-82
2022/06/20 05:55:15;;;;;;;10.32;6.88;;;;;;;21.05;76.34;99358.25;6214063;23;20453;-82
2022/06/20 05:57:42;;;;;;;8.05;7.35;;;;;;;21.41;75.53;99362.56;6216200;23;20012;-82
2022/06/20 06:00:19;;;;;;;10.43;7.47;;;;;;;21.74;73.19;99353.75;6190436;23;20081;-83
2022/06/20 06:03:10;;;;;;;8.38;7.15;;;;;;;22.01;71.87;99354.75;6189961;23;20077;-83
2022/06/20 06:05:41;;;;;;;7.82;7.05;;;;;;;22.14;70.51;99363.31;6215384;23;20015;-83
2022/06/20 06:08:22;;;;;;;7.50;6.90;;;;;;;22.23;68.79;99360.13;6241923;23;20016;-83
2022/06/20 06:11:03;;;;;;;6.93;6.10;;;;;;;22.28;67.46;99356.44;6238447;23;20027;-83
2022/06/20 06:13:43;;;;;;;8.20;6.47;;;;;;;22.41;66.98;99357.81;6240798;23;20012;-83
2022/06/20 06:19:20;;;;;;;7.13;6.53;;;;;;;22.69;64.67;99367.44;6218587;23;20018;-82
2022/06/20 06:21:47;;;;;;;12.88;6.90;;;;;;;22.84;64.02;99374.69;6213783;23;20043;-82
2022/06/20 06:24:16;;;;;;;8.50;6.32;;;;;;;22.94;64.38;99370.91;6241467;23;20009;-82
2022/06/20 06:26:42;;;;;;;8.25;6.68;;;;;;;22.94;64.08;99365.25;6214827;23;20456;-82
2022/06/20 06:29:17;;;;;;;7.15;6.50;;;;;;;23.15;63.54;99363.38;6241511;23;20385;-81
2022/06/20 06:31:42;;;;;;;6.80;6.03;;;;;;;23.52;62.53;99348.34;6242128;23;20016;-81
2022/06/20 06:34:45;;;;;;;6.70;6.03;;;;;;;23.56;59.83;99359.34;6242677;23;20427;-83
2022/06/20 06:37:23;;;;;;;8.35;6.20;;;;;;;23.71;59.73;99348.25;6242845;23;20149;-83
2022/06/20 06:40:03;;;;;;;8.10;6.30;;;;;;;24.03;59.06;99336.78;6215996;23;20446;-83
2022/06/20 06:42:28;;;;;;;6.78;6.18;;;;;;;24.09;56.30;99338.19;6242748;23;20338;-83
2022/06/20 06:44:55;;;;;;;8.25;5.80;;;;;;;24.18;55.47;99324.91;6216043;23;20007;-83
2022/06/20 06:47:40;;;;;;;6.70;5.85;;;;;;;24.25;54.14;99335.56;6215774;23;20050;-83
2022/06/20 06:50:35;;;;;;;6.78;6.10;;;;;;;24.26;55.15;99335.03;6216436;23;20012;-83
2022/06/20 06:53:16;;;;;;;6.00;5.40;;;;;;;24.46;54.13;99327.91;6242606;23;20099;-83
2022/06/20 06:55:45;;;;;;;7.13;5.75;;;;;;;24.45;52.49;99332.03;6242449;23;20031;-83
2022/06/20 06:58:25;;;;;;;7.00;6.03;;;;;;;24.74;52.49;99316.66;6216242;23;20469;-83
2022/06/20 07:00:54;;;;;;;6.22;5.72;;;;;;;24.77;51.14;99318.38;6192825;23;20389;-83
2022/06/20 07:03:27;;;;;;;6.43;5.82;;;;;;;24.74;52.19;99328.00;6243932;22;20012;-83
2022/06/20 07:06:00;;;;;;;6.70;5.93;;;;;;;24.80;51.55;99325.00;6244664;23;20016;-83
2022/06/20 07:08:29;;;;;;;8.60;5.57;;;;;;;24.99;50.91;99311.44;6217480;23;20020;-83
2022/06/20 07:11:06;;;;;;;6.30;5.68;;;;;;;24.89;50.42;99325.34;6217853;23;20090;-83
2022/06/20 07:13:39;;;;;;;6.95;5.78;;;;;;;25.04;50.57;99324.69;6217154;23;20115;-83
2022/06/20 07:16:09;;;;;;;;;;;;;;;25.39;50.11;99328.97;6218342;23;20012;-83
2022/06/20 07:18:44;;;;;;;6.85;5.85;;;;;;;25.60;49.05;99306.25;6216898;23;19918;-83
2022/06/20 07:21:12;;;;;;;5.70;5.20;;;;;;;25.73;48.09;99306.88;6217482;23;20062;-83
2022/06/20 07:23:39;;;;;;;6.20;5.40;;;;;;;25.61;48.53;99302.81;6217117;23;20012;-83
2022/06/20 07:26:04;;;;;;;6.15;5.32;;;;;;;25.81;48.47;99299.16;6244218;23;20012;-83
2022/06/20 07:28:48;;;;;;;6.82;5.40;;;;;;;25.98;48.66;99305.09;6243957;23;20334;-83
2022/06/20 07:31:25;;;;;;;6.45;5.35;;;;;;;25.96;48.25;99290.69;6244665;23;20012;-82
2022/06/20 07:34:03;;;;;;;6.82;5.10;;;;;;;25.93;47.09;99297.50;6217339;23;20133;-81
2022/06/20 07:36:33;;;;;;;6.03;5.43;;;;;;;25.96;46.99;99293.53;6217269;23;20461;-81
2022/06/20 07:39:26;;;;;;;6.80;5.28;;;;;;;26.05;47.26;99291.47;6244067;23;20098;-81
2022/06/20 07:41:58;;;;;;;6.30;5.05;;;;;;;26.27;45.87;99299.38;6163352;23;20361;-82
2022/06/20 07:44:42;;;;;;;5.53;5.03;;;;;;;26.26;43.64;99292.16;6217587;23;20022;-82
2022/06/20 07:47:17;;;;;;;6.47;5.22;;;;;;;26.54;43.60;99283.50;6217421;23;20150;-82
2022/06/20 07:49:50;;;;;;;5.72;4.70;;;;;;;26.62;42.82;99289.97;6216804;23;20448;-82
2022/06/20 07:52:29;;;;;;;5.65;4.90;;;;;;;26.96;42.52;99278.28;6244211;23;20098;-82
2022/06/20 07:54:59;;;;;;;5.32;4.50;;;;;;;27.32;42.09;99275.22;6192238;23;20481;-82
2022/06/20 07:57:30;;;;;;;7.50;4.80;;;;;;;27.49;40.80;99281.13;6217022;23;20074;-82
2022/06/20 08:00:05;;;;;;;5.63;4.28;;;;;;;27.43;40.35;99291.91;6241879;22;20070;-82
2022/06/20 08:02:51;;;;;;;6.97;4.60;;;;;;;27.40;41.04;99281.66;6241850;22;20402;-82
2022/06/20 08:05:34;;;;;;;7.75;4.65;;;;;;;27.66;40.55;99277.66;6241928;23;20044;-82
2022/06/20 08:08:00;;;;;;;6.85;4.28;;;;;;;27.99;40.07;99278.47;6239162;23;20055;-82
2022/06/20 08:10:28;;;;;;;6.32;4.65;;;;;;;28.05;38.43;99276.19;6239967;23;20422;-82
2022/06/20 08:13:00;;;;;;;5.22;4.43;;;;;;;27.75;39.16;99274.94;6213169;23;20024;-83
2022/06/20 08:15:29;;;;;;;7.00;4.60;;;;;;;27.89;39.34;99264.09;6240675;23;20023;-83
2022/06/20 08:17:54;;;;;;;7.75;4.47;;;;;;;28.23;38.37;99274.97;6214238;23;20000;-84
2022/06/20 08:20:22;;;;;;;8.70;4.75;;;;;;;28.45;37.95;99265.53;6239543;23;20042;-83
2022/06/20 08:23:04;;;;;;;6.72;4.53;;;;;;;28.61;38.14;99261.25;6212661;23;20015;-83
2022/06/20 08:25:35;;;;;;;7.60;4.80;;;;;;;28.77;37.29;99255.44;6241350;23;20020;-83
2022/06/20 08:28:05;;;;;;;8.25;4.18;;;;;;;28.40;36.64;99255.09;6214473;23;20036;-83
2022/06/20 08:30:42;;;;;;;7.00;4.50;;;;;;;28.65;36.70;99252.28;6215520;23;20034;-84
2022/06/20 08:33:28;;;;;;;5.95;4.63;;;;;;;28.96;36.10;99258.53;6241329;23;20106;-82
2022/06/20 08:35:59;;;;;;;9.52;4.20;;;;;;;29.28;36.46;99255.59;6214790;23;20492;-82
2022/06/20 08:38:29;;;;;;;5.07;4.05;;;;;;;29.35;35.85;99260.50;6240647;23;20019;-82
2022/06/20 08:40:55;;;;;;;7.57;4.30;;;;;;;29.38;34.78;99270.75;6214761;23;20009;-82
2022/06/20 08:43:48;;;;;;;7.38;4.40;;;;;;;29.27;34.30;99254.06;6241715;23;20008;-83
2022/06/20 08:46:16;;;;;;;;;;;;;;;28.87;35.41;99267.75;6242842;23;20007;-83
2022/06/20 08:49:07;;;;;;;7.55;4.20;;;;;;;29.41;34.64;99257.38;6242338;23;19918;-83
2022/06/20 08:52:12;;;;;;;5.00;3.67;;;;;;;29.34;34.77;99263.94;6216655;23;20008;-82
2022/06/20 08:55:05;;;;;;;6.20;4.15;;;;;;;29.50;33.61;99257.47;6242651;23;20446;-83
2022/06/20 08:58:29;;;;;;;10.52;4.63;;;;;;;29.29;32.92;99239.22;6191480;23;20016;-82
2022/06/20 09:01:24;;;;;;;4.25;3.85;;;;;;;29.16;33.87;99241.00;6142262;23;20026;-81
2022/06/20 09:04:27;;;;;;;6.68;3.92;;;;;;;29.62;33.80;99229.16;6216279;23;20020;-80
2022/06/20 09:07:37;;;;;;;6.13;3.53;;;;;;;29.95;32.43;99235.44;6243797;23;20022;-81
2022/06/20 09:10:26;;;;;;;6.32;3.83;;;;;;;29.99;33.47;99235.78;6191433;23;20016;-82
2022/06/20 09:12:58;;;;;;;7.10;4.40;;;;;;;30.02;32.60;99238.19;6216798;23;20069;-82
2022/06/20 09:15:29;;;;;;;7.20;4.05;;;;;;;30.00;32.46;99238.06;6216064;23;20019;-82
2022/06/20 09:18:19;;;;;;;7.30;3.75;;;;;;;30.08;32.73;99232.22;6243449;23;20545;-82
2022/06/20 09:20:52;;;;;;;7.72;4.10;;;;;;;30.01;32.84;99235.94;6215746;23;20040;-83
2022/06/20 09:23:21;;;;;;;4.85;4.00;;;;;;;30.12;32.81;99232.56;6241074;23;20016;-83
2022/06/20 09:25:55;;;;;;;5.82;3.78;;;;;;;30.10;33.48;99230.28;6240789;23;20388;-81
2022/06/20 09:28:25;;;;;;;5.57;3.97;;;;;;;30.49;33.16;99242.72;6242473;23;20091;-83
2022/06/20 09:31:09;;;;;;;6.65;4.05;;;;;;;30.63;32.33;99236.59;6215643;23;20047;-83
2022/06/20 09:34:03;;;;;;;5.30;3.80;;;;;;;30.88;31.87;99234.28;6241746;23;20458;-85
2022/06/20 09:36:50;;;;;;;6.25;3.70;;;;;;;31.21;31.70;99237.56;6160278;23;20014;-85
2022/06/20 09:39:31;;;;;;;6.75;4.40;;;;;;;31.18;31.31;99235.91;6242508;23;20014;-84
2022/06/20 09:42:10;;;;;;;6.35;4.10;;;;;;;31.33;30.85;99241.34;6242368;23;20039;-84
2022/06/20 09:44:46;;;;;;;6.90;3.90;;;;;;;31.55;31.65;99243.06;6242368;23;20434;-85
2022/06/20 09:47:41;;;;;;;6.35;4.00;;;;;;;31.46;31.59;99244.53;6210074;23;20012;-85
2022/06/20 09:50:37;;;;;;;7.10;3.90;;;;;;;31.13;31.25;99231.97;6187989;23;20016;-84
2022/06/20 09:53:18;;;;;;;5.70;3.83;;;;;;;30.79;31.35;99212.84;6214684;23;20394;-85
2022/06/20 09:55:57;;;;;;;6.55;4.15;;;;;;;30.48;31.50;99212.59;6237848;23;20008;-84
2022/06/20 09:58:44;;;;;;;4.75;3.58;;;;;;;30.71;32.17;99217.19;6187582;23;20008;-85
2022/06/20 10:01:20;;;;;;;7.75;4.18;;;;;;;30.76;31.94;99222.66;6240403;22;20371;-84
2022/06/20 10:04:17;;;;;;;6.13;3.80;;;;;;;30.58;32.72;99221.22;6211313;23;20016;-84
2022/06/20 10:06:46;;;;;;;5.82;3.95;;;;;;;30.73;32.57;99214.50;6241196;23;20096;-83
2022/06/20 10:09:46;;;;;;;4.93;3.97;;;;;;;31.07;32.50;99211.44;6188899;23;20026;-83
2022/06/20 10:12:23;;;;;;;4.30;3.90;;;;;;;31.25;31.80;99212.84;6241058;23;20458;-83
2022/06/20 10:15:15;;;;;;;6.28;4.03;;;;;;;31.02;31.30;99220.34;6209065;23;20492;-83
2022/06/20 10:18:09;;;;;;;6.45;4.30;;;;;;;31.11;32.06;99213.88;6211082;23;20374;-83
2022/06/20 10:20:34;;;;;;;8.48;4.00;;;;;;;31.33;31.55;99213.47;6212536;23;20019;-83
2022/06/20 10:23:28;;;;;;;4.78;4.00;;;;;;;31.39;31.71;99210.28;6241535;23;20058;-84
2022/06/20 10:26:35;;;;;;;5.88;4.10;;;;;;;31.23;31.91;99212.69;6215615;23;20023;-84
2022/06/20 10:29:39;;;;;;;7.88;4.35;;;;;;;31.37;32.42;99210.91;6225814;23;20054;-85
2022/06/20 10:32:23;;;;;;;6.07;4.22;;;;;;;31.58;32.72;99216.06;6220862;23;20498;-85
2022/06/20 10:34:55;;;;;;;5.68;4.00;;;;;;;31.71;31.98;99209.09;6215747;23;20333;-84
2022/06/20 10:37:27;;;;;;;6.25;4.25;;;;;;;31.64;31.43;99198.53;6192441;23;20016;-85
2022/06/20 10:40:00;;;;;;;7.07;3.90;;;;;;;31.79;31.67;99196.13;6215516;23;20012;-84
2022/06/20 10:42:43;;;;;;;8.60;4.45;;;;;;;31.60;32.38;99203.97;6217345;23;20035;-85
2022/06/20 10:45:38;;;;;;;4.63;4.05;;;;;;;31.57;32.20;99208.81;6216620;23;20023;-83
2022/06/20 10:48:15;;;;;;;4.65;3.60;;;;;;;31.69;31.95;99208.97;6243504;23;20062;-83
2022/06/20 10:51:06;;;;;;;4.72;4.18;;;;;;;31.41;32.10;99196.88;6214652;23;20016;-83
2022/06/20 10:54:07;;;;;;;6.25;3.95;;;;;;;31.34;32.17;99203.50;6243181;23;20046;-83
2022/06/20 10:56:48;;;;;;;7.90;4.15;;;;;;;31.67;32.33;99189.50;6223748;23;20012;-83
2022/06/20 10:59:27;;;;;;;6.55;4.05;;;;;;;31.76;32.33;99179.38;6191455;23;20043;-83
2022/06/20 11:02:32;;;;;;;5.57;3.90;;;;;;;31.94;31.69;99186.44;6191474;23;20050;-83
2022/06/20 11:05:19;;;;;;;4.82;3.72;;;;;;;32.18;32.04;99178.88;6242269;23;20012;-83
2022/06/20 11:07:56;;;;;;;6.03;4.10;;;;;;;31.87;31.99;99184.47;6216384;23;20494;-83
2022/06/20 11:10:31;;;;;;;5.75;4.05;;;;;;;31.68;31.70;99182.41;6216419;23;20057;-83
2022/06/20 11:13:17;;;;;;;5.88;3.65;;;;;;;31.88;31.60;99188.84;6244280;23;20019;-83
2022/06/20 11:15:48;;;;;;;6.00;3.80;;;;;;;31.99;31.52;99181.75;6214125;23;20523;-83
2022/06/20 11:18:32;;;;;;;9.80;4.28;;;;;;;31.81;31.15;99181.19;6242319;23;20020;-83
2022/06/20 11:21:36;;;;;;;6.80;4.30;;;;;;;32.00;31.54;99186.13;6215553;23;20012;-84
2022/06/20 11:24:06;;;;;;;;;;;;;;;32.05;32.49;99191.56;6242501;23;20016;-85
2022/06/20 11:26:45;;;;;;;6.68;4.18;;;;;;;31.93;32.32;99182.06;6214922;23;19911;-85
2022/06/20 11:29:22;;;;;;;7.85;4.55;;;;;;;31.85;31.82;99190.09;6214564;23;20584;-84
2022/06/20 11:32:10;;;;;;;8.63;4.15;;;;;;;31.75;32.39;99177.84;6214653;23;20476;-85
2022/06/20 11:34:50;;;;;;;6.25;4.00;;;;;;;31.35;32.38;99169.84;6214877;23;20089;-85
2022/06/20 11:37:57;;;;;;;7.28;4.78;;;;;;;31.69;33.11;99180.28;6243906;23;20386;-84
2022/06/20 11:40:35;;;;;;;9.15;4.72;;;;;;;32.02;32.72;99166.97;6222402;23;20522;-83
2022/06/20 11:43:19;;;;;;;8.95;4.78;;;;;;;32.29;32.72;99178.22;6242679;23;20012;-83
2022/06/20 11:46:06;;;;;;;7.05;4.53;;;;;;;32.03;31.77;99174.19;6241959;23;20012;-83
2022/06/20 11:48:57;;;;;;;4.82;4.32;;;;;;;32.31;31.52;99175.50;6243131;23;20086;-83
2022/06/20 11:51:34;;;;;;;6.35;4.40;;;;;;;32.42;32.75;99182.69;6242745;23;20015;-83
2022/06/20 11:54:15;;;;;;;6.25;4.80;;;;;;;32.58;32.49;99175.97;6245291;23;20020;-83
2022/06/20 11:57:11;;;;;;;5.10;4.35;;;;;;;32.50;31.60;99166.06;6244345;23;20012;-83
2022/06/20 11:59:49;;;;;;;8.73;4.20;;;;;;;32.56;31.59;99158.59;6241551;23;20662;-84
2022/06/20 12:02:19;;;;;;;8.45;4.70;;;;;;;32.56;31.99;99172.19;6215573;23;20019;-83
2022/06/20 12:04:58;;;;;;;5.75;4.13;;;;;;;32.49;33.85;99176.03;6241222;23;20018;-83
2022/06/20 12:07:37;;;;;;;6.57;4.60;;;;;;;32.88;32.29;99168.72;6242438;23;20431;-84
2022/06/20 12:10:24;;;;;;;8.05;4.63;;;;;;;33.15;31.89;99169.19;6243568;23;20040;-83
2022/06/20 12:13:13;;;;;;;6.20;4.38;;;;;;;33.38;31.00;99159.94;6191949;23;20008;-83
2022/06/20 12:15:50;;;;;;;5.68;4.20;;;;;;;33.55;31.53;99161.75;6191224;23;20438;-83
2022/06/20 12:23:18;;;;;;;6.63;4.32;;;;;;;33.59;30.60;99153.41;6216881;23;20389;-84
2022/06/20 12:24:17;;;;;;;11.40;4.85;;;;;;;33.42;31.20;99174.56;6243528;23;20386;-85
2022/06/20 12:26:42;;;;;;;7.38;4.47;;;;;;;33.21;31.13;99160.97;6216147;23;20058;-84
2022/06/20 12:29:17;;;;;;;9.40;4.28;;;;;;;33.48;31.81;99177.13;6241482;23;20326;-84
2022/06/20 12:31:47;;;;;;;8.07;4.35;;;;;;;33.16;30.96;99169.97;6240974;23;20008;-85
2022/06/20 12:34:33;;;;;;;5.93;4.18;;;;;;;33.07;31.01;99179.34;6214662;23;20446;-85